Time,TemperatureF,DewpointF,PressureIn,WindDirection,WindDirectionDegrees,WindSpeedMPH,WindSpeedGustMPH,Humidity,HourlyPrecipIn,Conditions,Clouds,dailyrainin,SoftwareType,DateUTC
2013-08-16 00:00:00,55.0,53.0,30.14,SW,223,0.0,0.0,92,-99.99,,,-99.99,,2013-08-16 04:00:00,
2013-08-16 00:43:00,55.0,53.0,30.14,SW,223,0.0,0.0,92,-99.99,,,-99.99,,2013-08-16 04:43:00,
2013-08-16 00:54:00,55.0,53.0,30.14,SW,223,0.0,0.0,92,-99.99,,,-99.99,,2013-08-16 04:54:00,
2013-08-16 02:00:00,54.0,52.0,30.13,South,182,0.0,0.0,94,-99.99,,,-99.99,,2013-08-16 06:00:00,
2013-08-16 03:00:00,52.0,50.0,30.13,SW,223,0.0,0.0,94,-99.99,,,-99.99,,2013-08-16 07:00:00,
2013-08-16 03:42:00,52.0,50.0,30.13,SW,223,0.0,0.0,94,-99.99,,,-99.99,,2013-08-16 07:42:00,
2013-08-16 03:52:00,52.0,50.0,30.13,SW,223,0.0,0.0,94,-99.99,,,-99.99,,2013-08-16 07:52:00,
2013-08-16 04:00:00,51.0,49.0,30.13,SSE,161,0.0,0.0,94,-99.99,,,-99.99,,2013-08-16 08:00:00,
2013-08-16 04:42:00,51.0,49.0,30.13,SSE,161,0.0,0.0,94,-99.99,,,-99.99,,2013-08-16 08:42:00,
2013-08-16 04:52:00,51.0,49.0,30.13,SSE,161,0.0,0.0,94,-99.99,,,-99.99,,2013-08-16 08:52:00,
2013-08-16 05:00:00,51.0,49.0,30.13,SSW,202,0.0,0.0,94,-99.99,,,-99.99,,2013-08-16 09:00:00,
2013-08-16 05:42:00,51.0,49.0,30.13,SSW,202,0.0,0.0,94,-99.99,,,-99.99,,2013-08-16 09:42:00,
2013-08-16 05:53:00,51.0,49.0,30.13,SSW,202,0.0,0.0,94,-99.99,,,-99.99,,2013-08-16 09:53:00,
2013-08-16 06:00:00,50.0,48.0,30.13,South,169,0.0,0.0,94,-99.99,,,-99.99,,2013-08-16 10:00:00,
2013-08-16 06:42:00,50.0,48.0,30.13,South,169,0.0,0.0,94,-99.99,,,-99.99,,2013-08-16 10:42:00,
2013-08-16 06:53:00,50.0,48.0,30.13,South,169,0.0,0.0,94,-99.99,,,-99.99,,2013-08-16 10:53:00,
2013-08-16 07:00:00,51.0,49.0,30.14,South,187,0.0,0.0,94,-99.99,,,-99.99,,2013-08-16 11:00:00,
2013-08-16 07:42:00,51.0,49.0,30.14,South,187,0.0,0.0,94,-99.99,,,-99.99,,2013-08-16 11:42:00,
2013-08-16 07:52:00,51.0,49.0,30.14,South,187,0.0,0.0,94,-99.99,,,-99.99,,2013-08-16 11:52:00,
2013-08-16 08:00:00,62.0,55.0,30.15,NNW,327,0.0,0.0,79,-99.99,,,-99.99,,2013-08-16 12:00:00,
2013-08-16 08:42:00,62.0,55.0,30.15,NNW,327,0.0,0.0,79,-99.99,,,-99.99,,2013-08-16 12:42:00,
2013-08-16 08:52:00,62.0,55.0,30.15,NNW,327,0.0,0.0,79,-99.99,,,-99.99,,2013-08-16 12:52:00,
2013-08-16 09:00:00,69.0,56.0,30.15,NNW,346,3.0,4.0,63,-99.99,,,-99.99,,2013-08-16 13:00:00,
2013-08-16 09:42:00,69.0,56.0,30.15,NNW,346,3.0,4.0,63,-99.99,,,-99.99,,2013-08-16 13:42:00,
2013-08-16 09:53:00,69.0,56.0,30.15,NNW,346,3.0,4.0,63,-99.99,,,-99.99,,2013-08-16 13:53:00,
2013-08-16 10:00:00,73.0,56.0,30.14,WNW,299,0.0,7.0,54,-99.99,,,-99.99,,2013-08-16 14:00:00,
2013-08-16 10:42:00,73.0,56.0,30.14,WNW,299,0.0,7.0,54,-99.99,,,-99.99,,2013-08-16 14:42:00,
2013-08-16 10:52:00,73.0,56.0,30.14,WNW,299,0.0,7.0,54,-99.99,,,-99.99,,2013-08-16 14:52:00,
2013-08-16 11:00:00,77.0,46.0,30.14,NNE,28,0.0,7.0,34,-99.99,,,-99.99,,2013-08-16 15:00:00,
2013-08-16 11:43:00,77.0,46.0,30.14,NNE,28,0.0,7.0,34,-99.99,,,-99.99,,2013-08-16 15:43:00,
2013-08-16 11:56:00,77.0,46.0,30.14,NNE,28,0.0,7.0,34,-99.99,,,-99.99,,2013-08-16 15:56:00,
2013-08-16 12:00:00,77.0,49.0,30.14,NNE,26,3.0,9.0,37,-99.99,,,-99.99,,2013-08-16 16:00:00,
2013-08-16 12:44:00,77.0,49.0,30.14,NNE,26,3.0,9.0,37,-99.99,,,-99.99,,2013-08-16 16:44:00,
2013-08-16 12:57:00,77.0,49.0,30.14,NNE,26,3.0,9.0,37,-99.99,,,-99.99,,2013-08-16 16:57:00,
2013-08-16 13:00:00,78.0,49.0,30.14,ENE,68,3.0,8.0,35,-99.99,,,-99.99,,2013-08-16 17:00:00,
2013-08-16 13:47:00,78.0,49.0,30.14,ENE,68,3.0,8.0,35,-99.99,,,-99.99,,2013-08-16 17:47:00,
2013-08-16 14:00:00,80.0,51.0,30.13,SSE,151,0.0,7.0,36,-99.99,,,-99.99,,2013-08-16 18:00:00,
2013-08-16 14:50:00,-999.0,-99.9,30.13,SSE,151,0.0,7.0,36,-99.99,,,-99.99,,2013-08-16 18:50:00,
2013-08-16 16:00:00,77.0,50.0,30.11,SSE,156,2.0,9.0,39,-99.99,,,-99.99,,2013-08-16 20:00:00,
2013-08-16 16:44:00,77.0,50.0,30.11,SSE,156,2.0,9.0,39,-99.99,,,-99.99,,2013-08-16 20:44:00,
2013-08-16 16:52:00,77.0,50.0,30.11,SSE,156,2.0,9.0,39,-99.99,,,-99.99,,2013-08-16 20:52:00,
2013-08-16 17:00:00,77.0,48.0,30.13,East,89,1.0,11.0,36,-99.99,,,-99.99,,2013-08-16 21:00:00,
2013-08-16 17:40:00,-999.0,-99.9,30.13,East,89,1.0,11.0,-999,-99.99,,,-99.99,,2013-08-16 21:40:00,
2013-08-16 17:54:00,77.0,48.0,30.13,East,89,1.0,11.0,36,-99.99,,,-99.99,,2013-08-16 21:54:00,
2013-08-16 18:00:00,73.0,52.0,30.14,SE,146,2.0,9.0,47,-99.99,,,-99.99,,2013-08-16 22:00:00,
2013-08-16 18:43:00,73.0,52.0,30.14,SE,146,2.0,9.0,47,-99.99,,,-99.99,,2013-08-16 22:43:00,
2013-08-16 18:52:00,73.0,52.0,30.14,SE,146,2.0,9.0,47,-99.99,,,-99.99,,2013-08-16 22:52:00,
2013-08-16 19:00:00,71.0,56.0,30.15,SSE,157,0.0,7.0,59,-99.99,,,-99.99,,2013-08-16 23:00:00,
2013-08-16 19:42:00,71.0,56.0,30.15,SSE,157,0.0,7.0,59,-99.99,,,-99.99,,2013-08-16 23:42:00,
2013-08-16 19:52:00,71.0,56.0,30.15,SSE,157,0.0,7.0,59,-99.99,,,-99.99,,2013-08-16 23:52:00,
2013-08-16 20:00:00,65.0,59.0,30.16,SSW,203,0.0,0.0,81,-99.99,,,-99.99,,2013-08-17 00:00:00,
2013-08-16 20:42:00,65.0,59.0,30.16,SSW,203,0.0,0.0,81,-99.99,,,-99.99,,2013-08-17 00:42:00,
2013-08-16 20:52:00,65.0,59.0,30.16,SSW,203,0.0,0.0,81,-99.99,,,-99.99,,2013-08-17 00:52:00,
2013-08-16 21:00:00,62.0,58.0,30.17,SW,217,0.0,0.0,86,-99.99,,,-99.99,,2013-08-17 01:00:00,
2013-08-16 21:42:00,62.0,58.0,30.17,SW,217,0.0,0.0,86,-99.99,,,-99.99,,2013-08-17 01:42:00,
2013-08-16 21:52:00,62.0,58.0,30.17,SW,217,0.0,0.0,86,-99.99,,,-99.99,,2013-08-17 01:52:00,
2013-08-16 22:00:00,61.0,57.0,30.18,SW,220,0.0,0.0,90,-99.99,,,-99.99,,2013-08-17 02:00:00,
2013-08-16 22:42:00,61.0,57.0,30.18,SW,220,0.0,0.0,90,-99.99,,,-99.99,,2013-08-17 02:42:00,
2013-08-16 22:52:00,61.0,57.0,30.18,SW,220,0.0,0.0,90,-99.99,,,-99.99,,2013-08-17 02:52:00,
2013-08-16 23:00:00,58.0,56.0,30.19,SW,218,0.0,0.0,91,-99.99,,,-99.99,,2013-08-17 03:00:00,
2013-08-16 23:43:00,58.0,56.0,30.19,SW,218,0.0,0.0,91,-99.99,,,-99.99,,2013-08-17 03:43:00,
2013-08-16 23:53:00,58.0,56.0,30.19,SW,218,0.0,0.0,91,-99.99,,,-99.99,,2013-08-17 03:53:00,